createdAt,value
2018-06-20T00:00:56.245Z,99.99
2018-06-20T00:01:56.169Z,99.99
2018-06-20T00:03:49.451Z,99.99
2018-06-20T00:04:49.395Z,99.99
2018-06-20T00:06:42.694Z,99.99
2018-06-20T00:07:42.616Z,99.99
2018-06-20T00:09:35.899Z,99.99
2018-06-20T00:10:35.839Z,99.99
2018-06-20T00:12:29.139Z,99.99
2018-06-20T00:13:29.060Z,99.99
2018-06-20T00:15:22.345Z,99.99
2018-06-20T00:16:22.285Z,99.99
2018-06-20T00:18:16.191Z,99.99
2018-06-20T00:19:15.499Z,99.99
2018-06-20T00:21:08.904Z,99.99
2018-06-20T00:22:08.723Z,99.99
2018-06-20T00:24:02.111Z,99.99
2018-06-20T00:25:01.947Z,99.99
2018-06-20T00:26:55.250Z,99.99
2018-06-20T00:27:55.173Z,99.99
2018-06-20T00:29:48.454Z,99.99
2018-06-20T00:30:48.394Z,99.99
2018-06-20T00:32:41.798Z,99.99
2018-06-20T00:33:41.617Z,99.99
2018-06-20T00:35:34.901Z,99.99
2018-06-20T00:36:34.841Z,99.99
2018-06-20T00:38:28.134Z,99.99
2018-06-20T00:39:28.056Z,99.99
2018-06-20T00:41:21.441Z,99.99
2018-06-20T00:42:21.279Z,99.99
2018-06-20T00:44:14.583Z,99.99
2018-06-20T00:45:14.506Z,99.99
2018-06-20T00:47:08.805Z,99.99
2018-06-20T00:48:08.728Z,99.99
2018-06-20T00:50:02.011Z,99.99
2018-06-20T00:51:01.951Z,99.99
2018-06-20T00:52:55.353Z,99.99
2018-06-20T00:53:55.173Z,99.99
2018-06-20T00:55:48.456Z,99.99
2018-06-20T00:56:48.396Z,99.99
2018-06-20T00:58:41.697Z,99.99
2018-06-20T00:59:41.619Z,99.99
2018-06-20T01:01:34.902Z,99.99
2018-06-20T01:02:34.844Z,99.99
2018-06-20T01:04:28.143Z,99.99
2018-06-20T01:05:28.066Z,99.99
2018-06-20T01:07:21.376Z,99.99
2018-06-20T01:08:21.289Z,99.99
2018-06-20T01:10:14.571Z,99.99
2018-06-20T01:11:14.512Z,99.99
2018-06-20T01:13:07.812Z,99.99
2018-06-20T01:14:07.733Z,99.99
2018-06-20T01:16:01.017Z,99.99
2018-06-20T01:17:00.957Z,99.99
2018-06-20T01:18:54.361Z,99.99
2018-06-20T01:19:54.284Z,99.99
2018-06-20T01:21:47.568Z,99.99
2018-06-20T01:22:47.505Z,99.99
2018-06-20T01:24:40.806Z,99.99
2018-06-20T01:25:40.727Z,99.99
2018-06-20T01:27:34.001Z,99.99
2018-06-20T01:28:33.942Z,99.99
2018-06-20T01:30:27.348Z,99.99
2018-06-20T01:31:27.164Z,99.99
2018-06-20T01:33:20.466Z,99.99
2018-06-20T01:34:20.388Z,99.99
2018-06-20T01:36:13.772Z,99.99
2018-06-20T01:37:13.611Z,99.99
2018-06-20T01:39:06.912Z,99.99
2018-06-20T01:40:06.832Z,99.99
2018-06-20T01:42:00.120Z,99.99
2018-06-20T01:43:00.055Z,99.99
2018-06-20T01:44:53.355Z,99.99
2018-06-20T01:45:53.276Z,99.99
2018-06-20T01:47:46.552Z,99.99
2018-06-20T01:48:46.490Z,99.99
2018-06-20T01:50:39.896Z,99.99
2018-06-20T01:51:39.713Z,99.99
2018-06-20T01:53:33.025Z,99.99
2018-06-20T01:54:32.935Z,99.99
2018-06-20T01:56:26.320Z,99.99
2018-06-20T01:57:26.155Z,99.99
2018-06-20T01:59:19.560Z,99.99
2018-06-20T02:00:19.379Z,99.99
2018-06-20T02:02:12.662Z,99.99
2018-06-20T02:03:12.601Z,99.99
2018-06-20T02:05:06.752Z,99.99
2018-06-20T02:06:06.672Z,99.99
2018-06-20T02:07:59.947Z,99.99
2018-06-20T02:08:59.888Z,99.99
2018-06-20T02:10:53.289Z,99.99
2018-06-20T02:11:53.108Z,99.99
2018-06-20T02:13:46.389Z,99.99
2018-06-20T02:14:46.329Z,99.99
2018-06-20T02:16:39.732Z,99.99
2018-06-20T02:17:39.552Z,99.99
2018-06-20T02:19:32.857Z,99.99
2018-06-20T02:20:32.771Z,99.99
2018-06-20T02:22:26.056Z,99.99
2018-06-20T02:23:25.995Z,99.99
2018-06-20T02:25:19.901Z,99.99
2018-06-20T02:26:19.215Z,99.99
2018-06-20T02:28:12.489Z,99.99
2018-06-20T02:29:12.428Z,99.99
2018-06-20T02:31:05.734Z,99.99
2018-06-20T02:32:05.650Z,99.99
2018-06-20T02:33:58.932Z,99.99
2018-06-20T02:34:58.875Z,99.99
2018-06-20T02:36:52.175Z,99.99
2018-06-20T02:37:52.096Z,99.99
2018-06-20T02:39:45.376Z,99.99
2018-06-20T02:40:45.324Z,99.99
2018-06-20T02:42:38.617Z,99.99
2018-06-20T02:43:38.539Z,99.99
2018-06-20T02:45:31.836Z,99.99
2018-06-20T02:46:31.760Z,99.99
2018-06-20T02:48:25.144Z,99.99
2018-06-20T02:49:24.971Z,99.99
2018-06-20T02:51:18.288Z,99.99
2018-06-20T02:52:18.195Z,99.99
2018-06-20T02:54:11.476Z,99.99
2018-06-20T02:55:11.423Z,99.99
2018-06-20T02:57:04.724Z,99.99
2018-06-20T02:58:04.636Z,99.99
2018-06-20T02:59:57.919Z,99.99
2018-06-20T03:00:57.858Z,99.99
2018-06-20T03:02:51.159Z,99.99
2018-06-20T03:03:51.080Z,99.99
2018-06-20T03:05:44.363Z,99.99
2018-06-20T03:06:44.302Z,99.99
2018-06-20T03:08:37.601Z,99.99
2018-06-20T03:09:37.520Z,99.99
2018-06-20T03:11:30.931Z,99.99
2018-06-20T03:12:30.743Z,99.99
2018-06-20T03:14:24.024Z,99.99
2018-06-20T03:15:23.963Z,99.99
2018-06-20T03:17:17.361Z,99.99
2018-06-20T03:18:17.285Z,99.99
2018-06-20T03:20:10.564Z,99.99
2018-06-20T03:21:10.504Z,99.99
2018-06-20T03:23:03.806Z,99.99
2018-06-20T03:24:03.724Z,99.99
2018-06-20T03:25:57.006Z,99.99
2018-06-20T03:26:56.950Z,99.99
2018-06-20T03:28:50.246Z,99.99
2018-06-20T03:29:50.172Z,99.99
2018-06-20T03:31:43.448Z,99.99
2018-06-20T03:32:43.388Z,99.99
2018-06-20T03:34:36.689Z,99.99
2018-06-20T03:35:36.609Z,99.99
2018-06-20T03:37:29.909Z,99.99
2018-06-20T03:38:29.830Z,99.99
2018-06-20T03:40:23.112Z,99.99
2018-06-20T03:41:23.053Z,99.99
2018-06-20T03:43:16.457Z,99.99
2018-06-20T03:44:16.273Z,99.99
2018-06-20T03:46:09.658Z,99.99
2018-06-20T03:47:09.494Z,99.99
2018-06-20T03:49:02.794Z,99.99
2018-06-20T03:50:02.716Z,99.99
2018-06-20T03:51:56.001Z,99.99
2018-06-20T03:52:55.933Z,99.99
2018-06-20T03:54:49.237Z,99.99
2018-06-20T03:55:49.158Z,99.99
2018-06-20T03:57:42.460Z,99.99
2018-06-20T03:58:42.373Z,99.99
2018-06-20T04:00:35.756Z,99.99
2018-06-20T04:01:35.594Z,99.99
2018-06-20T04:03:28.895Z,99.99
2018-06-20T04:04:28.816Z,99.99
2018-06-20T04:06:22.201Z,99.99
2018-06-20T04:07:22.040Z,99.99
2018-06-20T04:09:15.361Z,99.99
2018-06-20T04:10:15.282Z,99.99
2018-06-20T04:12:08.666Z,99.99
2018-06-20T04:13:08.504Z,99.99
2018-06-20T04:15:01.806Z,99.99
2018-06-20T04:16:01.727Z,99.99
2018-06-20T04:17:55.113Z,99.99
2018-06-20T04:18:54.943Z,99.99
2018-06-20T04:20:48.243Z,99.99
2018-06-20T04:21:48.165Z,99.99
2018-06-20T04:23:41.465Z,99.99
2018-06-20T04:24:41.388Z,99.99
2018-06-20T04:26:34.674Z,99.99
2018-06-20T04:27:34.632Z,99.99
2018-06-20T04:29:28.014Z,99.99
2018-06-20T04:30:27.831Z,99.99
2018-06-20T04:32:21.113Z,99.99
2018-06-20T04:33:21.056Z,99.99
2018-06-20T04:35:14.363Z,99.99
2018-06-20T04:36:14.280Z,99.99
2018-06-20T04:38:07.662Z,99.99
2018-06-20T04:39:07.496Z,99.99
2018-06-20T04:41:00.793Z,99.99
2018-06-20T04:42:00.715Z,99.99
2018-06-20T04:43:54.016Z,99.99
2018-06-20T04:44:53.939Z,99.99
2018-06-20T04:46:47.222Z,99.99
2018-06-20T04:47:47.162Z,99.99
2018-06-20T04:49:40.463Z,99.99
2018-06-20T04:50:40.382Z,99.99
2018-06-20T04:52:33.659Z,99.99
2018-06-20T04:53:33.599Z,99.99
2018-06-20T04:55:26.896Z,99.99
2018-06-20T04:56:26.815Z,99.99
2018-06-20T04:58:20.091Z,99.99
2018-06-20T04:59:20.032Z,99.99
2018-06-20T05:01:13.362Z,99.99
2018-06-20T05:02:13.285Z,99.99
2018-06-20T05:04:07.215Z,99.99
2018-06-20T05:05:06.500Z,99.99
2018-06-20T05:06:59.819Z,99.99
2018-06-20T05:07:59.717Z,99.99
2018-06-20T05:09:53.012Z,99.99
2018-06-20T05:10:52.937Z,99.99
2018-06-20T05:12:46.213Z,99.99
2018-06-20T05:13:46.155Z,99.99
2018-06-20T05:15:39.561Z,99.99
2018-06-20T05:16:39.372Z,99.99
2018-06-20T05:18:32.650Z,99.99
2018-06-20T05:19:32.594Z,99.99
2018-06-20T05:21:25.887Z,99.99
2018-06-20T05:22:25.812Z,99.99
2018-06-20T05:24:19.089Z,99.99
2018-06-20T05:25:19.030Z,99.99
2018-06-20T05:27:12.328Z,99.99
2018-06-20T05:28:12.250Z,99.99
2018-06-20T05:30:05.661Z,99.99
2018-06-20T05:31:05.476Z,99.99
2018-06-20T05:32:58.962Z,99.99
2018-06-20T05:33:58.701Z,99.99
2018-06-20T05:35:52.008Z,99.99
2018-06-20T05:36:51.940Z,99.99
2018-06-20T05:38:45.229Z,99.99
2018-06-20T05:39:45.165Z,99.99
2018-06-20T05:41:38.499Z,99.99
2018-06-20T05:42:38.392Z,99.99
2018-06-20T05:44:31.685Z,99.99
2018-06-20T05:45:31.625Z,99.99
2018-06-20T05:47:24.933Z,99.99
2018-06-20T05:48:24.858Z,99.99
2018-06-20T05:50:18.171Z,99.99
2018-06-20T05:51:18.095Z,99.99
2018-06-20T05:53:12.382Z,99.99
2018-06-20T05:54:12.329Z,99.99
2018-06-20T05:56:05.734Z,99.99
2018-06-20T05:57:05.559Z,99.99
2018-06-20T05:58:58.840Z,99.99
2018-06-20T05:59:58.782Z,99.99
2018-06-20T06:01:52.085Z,99.99
2018-06-20T06:02:52.004Z,99.99
2018-06-20T06:04:45.348Z,99.99
2018-06-20T06:05:45.293Z,99.99
2018-06-20T06:07:38.590Z,99.99
2018-06-20T06:08:38.515Z,99.99
2018-06-20T06:10:31.815Z,99.99
2018-06-20T06:11:31.740Z,99.99
2018-06-20T06:13:25.018Z,99.99
2018-06-20T06:14:24.963Z,99.99
2018-06-20T06:16:18.368Z,99.99
2018-06-20T06:17:18.186Z,99.99
2018-06-20T06:19:11.465Z,99.99
2018-06-20T06:20:11.408Z,99.99
2018-06-20T06:22:05.706Z,99.99
2018-06-20T06:23:05.631Z,99.99
2018-06-20T06:24:59.031Z,99.99
2018-06-20T06:25:58.854Z,99.99
2018-06-20T06:27:52.156Z,99.99
2018-06-20T06:28:52.076Z,99.99
2018-06-20T06:30:45.358Z,99.99
2018-06-20T06:31:45.303Z,99.99
2018-06-20T06:33:38.600Z,99.99
2018-06-20T06:34:38.524Z,99.99
2018-06-20T06:36:31.820Z,99.99
2018-06-20T06:37:31.744Z,99.99
2018-06-20T06:39:25.022Z,99.99
2018-06-20T06:40:24.964Z,99.99
2018-06-20T06:42:18.261Z,99.99
2018-06-20T06:43:18.184Z,99.99
2018-06-20T06:45:11.465Z,99.99
2018-06-20T06:46:11.406Z,99.99
2018-06-20T06:48:04.814Z,99.99
2018-06-20T06:49:04.629Z,99.99
2018-06-20T06:50:57.907Z,99.99
2018-06-20T06:51:57.850Z,99.99
2018-06-20T06:53:51.257Z,99.99
2018-06-20T06:54:51.073Z,99.99
2018-06-20T06:56:44.465Z,99.99
2018-06-20T06:57:44.292Z,99.99
2018-06-20T06:59:37.586Z,99.99
2018-06-20T07:00:37.518Z,99.99
2018-06-20T07:02:30.809Z,99.99
2018-06-20T07:03:30.735Z,99.99
2018-06-20T07:05:24.022Z,99.99
2018-06-20T07:06:23.964Z,99.99
2018-06-20T07:08:17.368Z,99.99
2018-06-20T07:09:17.338Z,99.99
2018-06-20T07:11:10.580Z,99.26
2018-06-20T07:12:10.524Z,98.92
2018-06-20T07:14:03.822Z,98.44
2018-06-20T07:15:03.749Z,97.28
2018-06-20T07:16:57.030Z,96.80
2018-06-20T07:17:56.974Z,95.16
2018-06-20T07:19:50.273Z,93.76
2018-06-20T07:20:50.201Z,92.98
2018-06-20T07:22:43.516Z,92.35
2018-06-20T07:23:43.428Z,91.19
2018-06-20T07:25:36.820Z,91.49
2018-06-20T07:26:36.658Z,92.11
2018-06-20T07:28:29.961Z,91.92
2018-06-20T07:29:29.889Z,92.07
2018-06-20T07:31:23.172Z,90.13
2018-06-20T07:32:23.116Z,90.33
2018-06-20T07:34:16.435Z,91.49
2018-06-20T07:35:16.345Z,92.21
2018-06-20T07:37:09.635Z,93.47
2018-06-20T07:38:09.572Z,92.74
2018-06-20T07:40:02.881Z,91.00
2018-06-20T07:41:02.801Z,91.29
2018-06-20T07:42:56.083Z,91.49
2018-06-20T07:43:56.030Z,92.35
2018-06-20T07:45:49.366Z,91.43
2018-06-20T07:46:49.343Z,88.24
2018-06-20T07:48:42.594Z,88.39
2018-06-20T07:49:42.521Z,88.73
2018-06-20T07:51:35.808Z,89.94
2018-06-20T07:52:35.754Z,90.23
2018-06-20T07:54:29.164Z,91.25
2018-06-20T07:55:28.982Z,90.03
2018-06-20T07:57:22.267Z,87.57
2018-06-20T07:58:22.213Z,87.18
2018-06-20T08:00:15.626Z,86.55
2018-06-20T08:01:15.445Z,84.52
2018-06-20T08:03:08.732Z,85.44
2018-06-20T08:04:08.679Z,85.15
2018-06-20T08:06:02.090Z,88.39
2018-06-20T08:07:01.911Z,89.89
2018-06-20T08:08:55.197Z,91.15
2018-06-20T08:09:55.149Z,93.62
2018-06-20T08:11:48.445Z,94.96
2018-06-20T08:12:48.374Z,96.75
2018-06-20T08:14:41.674Z,97.52
2018-06-20T08:15:41.598Z,96.99
2018-06-20T08:17:34.884Z,95.98
2018-06-20T08:18:34.829Z,96.80
2018-06-20T08:20:28.237Z,94.62
2018-06-20T08:21:28.053Z,93.47
2018-06-20T08:23:21.350Z,91.83
2018-06-20T08:24:21.297Z,91.19
2018-06-20T08:26:14.703Z,90.13
2018-06-20T08:27:14.521Z,90.61
2018-06-20T08:29:07.801Z,89.36
2018-06-20T08:30:07.748Z,89.99
2018-06-20T08:32:01.157Z,89.41
2018-06-20T08:33:00.976Z,90.19
2018-06-20T08:34:54.276Z,91.25
2018-06-20T08:35:54.204Z,90.86
2018-06-20T08:37:47.489Z,90.03
2018-06-20T08:38:47.434Z,89.41
2018-06-20T08:40:40.735Z,91.30
2018-06-20T08:41:40.664Z,91.05
2018-06-20T08:43:33.963Z,88.29
2018-06-20T08:44:33.890Z,87.37
2018-06-20T08:46:27.200Z,84.42
2018-06-20T08:47:27.126Z,84.17
2018-06-20T08:49:20.410Z,86.41
2018-06-20T08:50:20.357Z,86.41
2018-06-20T08:52:13.664Z,85.44
2018-06-20T08:53:13.592Z,85.10
2018-06-20T08:55:06.877Z,83.89
2018-06-20T08:56:06.824Z,81.52
2018-06-20T08:58:00.235Z,81.81
2018-06-20T08:59:00.059Z,82.68
2018-06-20T09:00:53.367Z,82.78
2018-06-20T09:01:53.298Z,81.75
2018-06-20T09:03:46.588Z,81.37
2018-06-20T09:04:46.525Z,81.52
2018-06-20T09:06:39.938Z,82.25
2018-06-20T09:07:39.757Z,83.85
2018-06-20T09:09:33.048Z,86.17
2018-06-20T09:10:32.993Z,87.04
2018-06-20T09:12:26.301Z,87.62
2018-06-20T09:13:26.226Z,86.99
2018-06-20T09:15:19.509Z,86.56
2018-06-20T09:16:19.454Z,86.41
2018-06-20T09:18:12.765Z,84.86
2018-06-20T09:19:12.693Z,85.53
2018-06-20T09:21:06.084Z,84.32
2018-06-20T09:22:06.005Z,85.44
2018-06-20T09:23:59.241Z,84.71
2018-06-20T09:24:59.170Z,83.30
2018-06-20T09:26:52.484Z,79.85
2018-06-20T09:27:52.411Z,79.08
2018-06-20T09:29:45.707Z,78.92
2018-06-20T09:30:45.654Z,78.92
2018-06-20T09:32:38.966Z,76.54
2018-06-20T09:33:38.896Z,77.24
2018-06-20T09:35:32.288Z,77.92
2018-06-20T09:36:32.157Z,77.57
2018-06-20T09:38:25.443Z,77.63
2018-06-20T09:39:25.372Z,78.27
2018-06-20T09:41:18.769Z,76.95
2018-06-20T09:42:18.620Z,77.09
2018-06-20T09:44:11.921Z,76.35
2018-06-20T09:45:11.853Z,74.32
2018-06-20T09:47:05.248Z,72.57
2018-06-20T09:48:05.085Z,74.96
2018-06-20T09:49:58.390Z,76.76
2018-06-20T09:50:58.320Z,75.05
2018-06-20T09:52:51.631Z,73.79
2018-06-20T09:53:51.555Z,75.15
2018-06-20T09:55:44.849Z,74.28
2018-06-20T09:56:44.791Z,73.64
2018-06-20T09:58:38.097Z,73.19
2018-06-20T09:59:38.022Z,71.73
2018-06-20T10:01:31.380Z,72.86
2018-06-20T10:02:31.298Z,73.75
2018-06-20T10:04:24.710Z,76.14
2018-06-20T10:05:24.527Z,75.54
2018-06-20T10:07:17.814Z,73.73
2018-06-20T10:08:17.761Z,73.79
2018-06-20T10:10:11.065Z,76.76
2018-06-20T10:11:11.020Z,76.46
2018-06-20T10:13:04.282Z,76.08
2018-06-20T10:14:04.231Z,76.31
2018-06-20T10:15:57.643Z,74.70
2018-06-20T10:16:57.467Z,74.99
2018-06-20T10:18:50.885Z,73.25
2018-06-20T10:19:50.709Z,73.99
2018-06-20T10:21:44.005Z,74.60
2018-06-20T10:22:43.954Z,74.86
2018-06-20T10:24:37.368Z,74.38
2018-06-20T10:25:37.297Z,75.05
2018-06-20T10:27:30.592Z,75.11
2018-06-20T10:28:30.586Z,74.73
2018-06-20T10:30:23.952Z,72.96
2018-06-20T10:31:23.784Z,72.77
2018-06-20T10:33:17.068Z,73.93
2018-06-20T10:34:17.033Z,72.35
2018-06-20T10:36:10.434Z,70.12
2018-06-20T10:37:10.251Z,68.73
2018-06-20T10:39:03.558Z,67.57
2018-06-20T10:40:03.564Z,67.76
2018-06-20T10:41:56.798Z,66.63
2018-06-20T10:42:56.732Z,66.44
2018-06-20T10:44:50.042Z,65.43
2018-06-20T10:45:49.968Z,65.11
2018-06-20T10:47:43.365Z,64.00
2018-06-20T10:48:43.300Z,63.75
2018-06-20T10:50:36.609Z,63.97
2018-06-20T10:51:36.542Z,64.33
2018-06-20T10:53:29.831Z,66.30
2018-06-20T10:54:29.789Z,65.85
2018-06-20T10:56:23.093Z,66.11
2018-06-20T10:57:23.024Z,66.24
2018-06-20T10:59:16.340Z,67.05
2018-06-20T11:00:16.267Z,67.18
2018-06-20T11:02:09.562Z,65.66
2018-06-20T11:03:09.509Z,64.88
2018-06-20T11:05:02.828Z,66.02
2018-06-20T11:06:02.758Z,67.54
2018-06-20T11:07:56.155Z,68.08
2018-06-20T11:08:56.002Z,68.70
2018-06-20T11:10:49.367Z,68.02
2018-06-20T11:11:49.298Z,65.95
2018-06-20T11:13:42.694Z,67.54
2018-06-20T11:14:42.535Z,68.28
2018-06-20T11:16:35.844Z,68.66
2018-06-20T11:17:35.775Z,68.37
2018-06-20T11:19:29.094Z,67.89
2018-06-20T11:20:29.013Z,67.47
2018-06-20T11:22:22.305Z,64.78
2018-06-20T11:23:22.355Z,64.62
2018-06-20T11:25:15.559Z,64.43
2018-06-20T11:26:15.490Z,64.33
2018-06-20T11:28:08.783Z,63.75
2018-06-20T11:29:08.778Z,62.77
2018-06-20T11:31:02.215Z,65.53
2018-06-20T11:32:01.976Z,64.98
2018-06-20T11:33:55.346Z,66.05
2018-06-20T11:34:55.295Z,67.05
2018-06-20T11:36:48.614Z,66.56
2018-06-20T11:37:48.548Z,67.54
2018-06-20T11:39:41.889Z,66.56
2018-06-20T11:40:41.804Z,66.79
2018-06-20T11:42:35.200Z,67.08
2018-06-20T11:43:35.042Z,66.50
2018-06-20T11:45:28.351Z,65.24
2018-06-20T11:46:28.280Z,66.08
2018-06-20T11:48:21.572Z,67.50
2018-06-20T11:49:21.522Z,67.54
2018-06-20T11:51:14.830Z,67.54
2018-06-20T11:52:14.761Z,67.08
2018-06-20T11:54:08.158Z,67.24
2018-06-20T11:55:07.998Z,67.63
2018-06-20T11:57:01.371Z,67.63
2018-06-20T11:58:01.304Z,68.05
2018-06-20T11:59:54.583Z,66.50
2018-06-20T12:00:54.533Z,66.89
2018-06-20T12:02:47.840Z,66.08
2018-06-20T12:03:47.797Z,66.30
2018-06-20T12:05:41.184Z,66.11
2018-06-20T12:06:41.006Z,65.08
2018-06-20T12:08:34.295Z,65.47
2018-06-20T12:09:34.242Z,65.27
2018-06-20T12:11:27.549Z,64.30
2018-06-20T12:12:27.480Z,64.43
2018-06-20T12:14:20.767Z,63.91
2018-06-20T12:15:20.714Z,63.62
2018-06-20T12:17:14.030Z,61.90
2018-06-20T12:18:13.961Z,61.48
2018-06-20T12:20:07.347Z,63.42
2018-06-20T12:21:07.296Z,64.14
2018-06-20T12:23:00.613Z,65.43
2018-06-20T12:24:00.545Z,66.21
2018-06-20T12:25:54.461Z,64.88
2018-06-20T12:26:53.788Z,63.55
2018-06-20T12:28:47.085Z,64.46
2018-06-20T12:29:47.033Z,64.46
2018-06-20T12:31:40.348Z,64.88
2018-06-20T12:32:40.277Z,64.78
2018-06-20T12:34:33.575Z,63.13
2018-06-20T12:35:33.524Z,63.52
2018-06-20T12:37:26.834Z,62.94
2018-06-20T12:38:26.758Z,63.68
2018-06-20T12:40:20.051Z,63.62
2018-06-20T12:41:19.999Z,63.23
2018-06-20T12:43:13.363Z,63.81
2018-06-20T12:44:13.295Z,63.91
2018-06-20T12:46:06.585Z,63.13
2018-06-20T12:47:06.535Z,63.23
2018-06-20T12:48:59.842Z,63.59
2018-06-20T12:49:59.767Z,63.98
2018-06-20T12:51:53.075Z,63.98
2018-06-20T12:52:53.005Z,63.71
2018-06-20T12:54:46.293Z,63.07
2018-06-20T12:55:46.238Z,62.45
2018-06-20T12:57:39.653Z,62.94
2018-06-20T12:58:39.474Z,63.04
2018-06-20T13:00:32.761Z,62.19
2018-06-20T13:01:32.708Z,62.00
2018-06-20T13:03:26.016Z,62.84
2018-06-20T13:04:25.955Z,62.29
2018-06-20T13:06:19.229Z,62.38
2018-06-20T13:07:19.179Z,61.71
2018-06-20T13:09:12.596Z,61.87
2018-06-20T13:10:12.410Z,62.42
2018-06-20T13:12:05.829Z,62.35
2018-06-20T13:13:05.648Z,62.16
2018-06-20T13:14:59.039Z,61.41
2018-06-20T13:15:58.880Z,61.71
2018-06-20T13:17:52.184Z,61.02
2018-06-20T13:18:52.113Z,61.61
2018-06-20T13:20:45.405Z,61.90
2018-06-20T13:21:45.348Z,61.02
2018-06-20T13:23:38.760Z,61.02
2018-06-20T13:24:38.581Z,61.80
2018-06-20T13:26:31.888Z,61.51
2018-06-20T13:27:31.836Z,61.41
2018-06-20T13:29:25.140Z,60.83
2018-06-20T13:30:25.069Z,61.51
2018-06-20T13:32:18.355Z,60.41
2018-06-20T13:33:18.303Z,61.09
2018-06-20T13:35:11.613Z,61.87
2018-06-20T13:36:11.539Z,62.16
2018-06-20T13:38:04.953Z,62.45
2018-06-20T13:39:04.776Z,63.13
2018-06-20T13:40:58.169Z,61.68
2018-06-20T13:41:58.010Z,62.65
2018-06-20T13:43:51.363Z,62.87
2018-06-20T13:44:51.293Z,62.00
2018-06-20T13:46:44.578Z,60.80
2018-06-20T13:47:44.524Z,61.77
2018-06-20T13:49:37.830Z,63.23
2018-06-20T13:50:37.757Z,63.10
2018-06-20T13:52:31.152Z,63.78
2018-06-20T13:53:30.993Z,63.49
2018-06-20T13:55:24.295Z,62.94
2018-06-20T13:56:24.224Z,63.52
2018-06-20T13:58:17.513Z,63.04
2018-06-20T13:59:17.522Z,62.74
2018-06-20T14:01:10.873Z,61.80
2018-06-20T14:02:10.694Z,62.58
2018-06-20T14:04:04.001Z,60.86
2018-06-20T14:05:03.949Z,60.25
2018-06-20T14:06:57.213Z,60.93
2018-06-20T14:07:57.160Z,61.02
2018-06-20T14:09:50.473Z,60.74
2018-06-20T14:10:50.406Z,60.25
2018-06-20T14:12:43.698Z,60.74
2018-06-20T14:13:43.646Z,61.22
2018-06-20T14:15:36.962Z,61.71
2018-06-20T14:16:36.892Z,61.32
2018-06-20T14:18:30.285Z,61.25
2018-06-20T14:19:30.125Z,60.47
2018-06-20T14:21:23.538Z,59.33
2018-06-20T14:22:23.378Z,58.72
2018-06-20T14:24:16.686Z,58.43
2018-06-20T14:25:16.616Z,58.82
2018-06-20T14:27:10.011Z,59.21
2018-06-20T14:28:09.861Z,59.76
2018-06-20T14:30:03.175Z,59.99
2018-06-20T14:31:03.118Z,60.64
2018-06-20T14:32:56.390Z,59.69
2018-06-20T14:33:56.337Z,59.57
2018-06-20T14:35:49.753Z,60.38
2018-06-20T14:36:49.573Z,59.69
2018-06-20T14:38:42.901Z,59.28
2018-06-20T14:39:42.806Z,59.08
2018-06-20T14:41:36.109Z,57.17
2018-06-20T14:42:36.041Z,56.75
2018-06-20T14:44:29.345Z,57.36
2018-06-20T14:45:29.295Z,56.77
2018-06-20T14:47:22.599Z,56.77
2018-06-20T14:48:22.530Z,56.39
2018-06-20T14:50:15.829Z,56.41
2018-06-20T14:51:15.760Z,56.49
2018-06-20T14:53:10.074Z,57.72
2018-06-20T14:54:10.005Z,57.92
2018-06-20T14:56:03.414Z,57.36
2018-06-20T14:57:03.292Z,57.14
2018-06-20T14:58:56.716Z,57.14
2018-06-20T14:59:56.525Z,57.56
2018-06-20T15:01:49.846Z,57.17
2018-06-20T15:02:49.760Z,57.75
2018-06-20T15:04:43.048Z,58.04
2018-06-20T15:05:43.000Z,57.87
2018-06-20T15:07:36.408Z,56.90
2018-06-20T15:08:36.232Z,56.81
2018-06-20T15:10:29.520Z,56.41
2018-06-20T15:11:29.468Z,55.83
2018-06-20T15:13:22.788Z,53.99
2018-06-20T15:14:22.737Z,54.35
2018-06-20T15:16:16.126Z,56.00
2018-06-20T15:17:15.957Z,56.03
2018-06-20T15:19:09.346Z,55.71
2018-06-20T15:20:09.302Z,56.49
2018-06-20T15:22:02.649Z,56.49
2018-06-20T15:23:02.585Z,56.90
2018-06-20T15:24:56.862Z,55.71
2018-06-20T15:25:56.809Z,56.00
2018-06-20T15:27:50.132Z,57.43
2018-06-20T15:28:50.060Z,57.56
2018-06-20T15:30:43.359Z,58.59
2018-06-20T15:31:43.316Z,58.69
2018-06-20T15:33:36.618Z,57.82
2018-06-20T15:34:36.546Z,57.75
2018-06-20T15:36:29.862Z,56.75
2018-06-20T15:37:29.792Z,57.65
2018-06-20T15:39:23.089Z,56.59
2018-06-20T15:40:23.031Z,56.10
2018-06-20T15:42:16.348Z,56.59
2018-06-20T15:43:16.276Z,55.25
2018-06-20T15:45:09.577Z,54.15
2018-06-20T15:46:09.522Z,55.25
2018-06-20T15:48:02.840Z,56.10
2018-06-20T15:49:02.770Z,55.80
2018-06-20T15:50:56.170Z,55.32
2018-06-20T15:51:56.015Z,56.03
2018-06-20T15:53:50.331Z,56.39
2018-06-20T15:54:50.255Z,56.61
2018-06-20T15:56:43.583Z,56.49
2018-06-20T15:57:43.502Z,57.26
2018-06-20T15:59:36.798Z,56.77
2018-06-20T16:00:36.747Z,57.56
2018-06-20T16:02:30.063Z,58.33
2018-06-20T16:03:29.992Z,58.14
2018-06-20T16:05:23.885Z,56.87
2018-06-20T16:06:23.293Z,56.68
2018-06-20T16:08:17.602Z,55.93
2018-06-20T16:09:17.527Z,55.80
2018-06-20T16:11:10.829Z,56.36
2018-06-20T16:12:10.774Z,56.26
2018-06-20T16:14:04.096Z,56.36
2018-06-20T16:15:04.029Z,56.36
2018-06-20T16:16:57.371Z,56.46
2018-06-20T16:17:57.290Z,56.68
2018-06-20T16:19:50.605Z,55.80
2018-06-20T16:20:50.535Z,55.13
2018-06-20T16:22:43.852Z,55.19
2018-06-20T16:23:43.787Z,55.10
2018-06-20T16:25:37.080Z,55.10
2018-06-20T16:26:37.024Z,54.90
2018-06-20T16:28:30.333Z,55.29
2018-06-20T16:29:30.260Z,55.80
2018-06-20T16:31:23.556Z,55.13
2018-06-20T16:32:23.504Z,54.52
2018-06-20T16:34:16.820Z,54.90
2018-06-20T16:35:16.747Z,54.61
2018-06-20T16:37:10.144Z,55.29
2018-06-20T16:38:09.994Z,54.80
2018-06-20T16:40:03.364Z,54.61
2018-06-20T16:41:03.293Z,55.29
2018-06-20T16:42:56.605Z,55.10
2018-06-20T16:43:56.532Z,54.61
2018-06-20T16:45:49.827Z,53.25
2018-06-20T16:46:49.777Z,52.19
2018-06-20T16:48:43.090Z,51.70
2018-06-20T16:49:43.018Z,51.79
2018-06-20T16:51:36.315Z,51.70
2018-06-20T16:52:36.261Z,51.70
2018-06-20T16:54:29.575Z,50.82
2018-06-20T16:55:29.502Z,50.60
2018-06-20T16:57:22.799Z,49.44
2018-06-20T16:58:22.745Z,49.63
2018-06-20T17:00:16.061Z,49.54
2018-06-20T17:01:15.988Z,49.66
2018-06-20T17:03:09.367Z,48.58
2018-06-20T17:04:09.290Z,48.58
2018-06-20T17:06:02.585Z,49.17
2018-06-20T17:07:02.532Z,49.46
2018-06-20T17:08:55.844Z,50.34
2018-06-20T17:09:55.774Z,50.14
2018-06-20T17:11:50.167Z,51.50
2018-06-20T17:12:50.023Z,50.92
2018-06-20T17:14:43.431Z,50.53
2018-06-20T17:15:43.286Z,49.95
2018-06-20T17:17:36.578Z,50.73
2018-06-20T17:18:36.522Z,50.82
2018-06-20T17:20:29.936Z,49.37
2018-06-20T17:21:29.765Z,50.04
2018-06-20T17:23:23.061Z,50.04
2018-06-20T17:24:23.013Z,49.54
2018-06-20T17:26:16.420Z,48.85
2018-06-20T17:27:16.246Z,48.85
2018-06-20T17:29:09.578Z,49.05
2018-06-20T17:30:09.492Z,49.34
2018-06-20T17:32:02.786Z,49.63
2018-06-20T17:33:02.769Z,49.82
2018-06-20T17:34:56.048Z,49.92
2018-06-20T17:35:55.975Z,50.41
2018-06-20T17:37:49.343Z,50.89
2018-06-20T17:38:49.292Z,50.70
2018-06-20T17:40:42.604Z,51.65
2018-06-20T17:41:42.533Z,51.75
2018-06-20T17:43:35.827Z,52.23
2018-06-20T17:44:35.777Z,53.20
2018-06-20T17:46:29.088Z,53.00
2018-06-20T17:47:29.019Z,53.10
2018-06-20T17:49:22.407Z,53.20
2018-06-20T17:50:22.257Z,53.39
2018-06-20T17:52:15.567Z,53.59
2018-06-20T17:53:15.497Z,54.17
2018-06-20T17:55:08.810Z,53.20
2018-06-20T17:56:08.739Z,53.69
2018-06-20T17:58:02.024Z,53.20
2018-06-20T17:59:01.970Z,53.78
2018-06-20T18:00:55.381Z,54.14
2018-06-20T18:01:55.209Z,53.88
2018-06-20T18:03:48.507Z,54.66
2018-06-20T18:04:48.452Z,54.14
2018-06-20T18:06:41.764Z,55.02
2018-06-20T18:07:41.690Z,54.53
2018-06-20T18:09:34.985Z,55.11
2018-06-20T18:10:34.934Z,54.63
2018-06-20T18:12:28.323Z,54.44
2018-06-20T18:13:28.173Z,54.92
2018-06-20T18:15:21.485Z,54.72
2018-06-20T18:16:21.414Z,54.92
2018-06-20T18:18:14.696Z,56.09
2018-06-20T18:19:14.640Z,55.60
2018-06-20T18:21:07.956Z,56.25
2018-06-20T18:22:07.882Z,56.35
2018-06-20T18:24:01.176Z,56.54
2018-06-20T18:25:01.120Z,56.37
2018-06-20T18:26:54.435Z,56.74
2018-06-20T18:27:54.365Z,57.15
2018-06-20T18:29:47.655Z,57.80
2018-06-20T18:30:47.603Z,58.00
2018-06-20T18:32:40.916Z,58.48
2018-06-20T18:33:40.843Z,58.87
2018-06-20T18:35:34.155Z,58.36